sensor_id;sensor_type;location;lat;lon;timestamp;temperature;humidity
9820;DHT22;4949;48.482;9.206;2023-07-24T00:04:33;22.10;57.30
9820;DHT22;4949;48.482;9.206;2023-07-24T00:09:36;22.10;57.50
9820;DHT22;4949;48.482;9.206;2023-07-24T00:14:39;22.10;57.60
9820;DHT22;4949;48.482;9.206;2023-07-24T00:19:42;22.00;57.80
9820;DHT22;4949;48.482;9.206;2023-07-24T00:24:43;21.90;58.00
9820;DHT22;4949;48.482;9.206;2023-07-24T00:29:44;22.10;57.20
9820;DHT22;4949;48.482;9.206;2023-07-24T00:34:44;22.00;58.20
9820;DHT22;4949;48.482;9.206;2023-07-24T00:39:47;22.10;57.40
9820;DHT22;4949;48.482;9.206;2023-07-24T00:44:48;22.30;56.50
9820;DHT22;4949;48.482;9.206;2023-07-24T00:49:51;22.00;57.10
9820;DHT22;4949;48.482;9.206;2023-07-24T00:54:55;21.80;57.50
9820;DHT22;4949;48.482;9.206;2023-07-24T01:00:02;21.70;58.50
9820;DHT22;4949;48.482;9.206;2023-07-24T01:05:04;21.50;59.00
9820;DHT22;4949;48.482;9.206;2023-07-24T01:10:05;21.30;59.60
9820;DHT22;4949;48.482;9.206;2023-07-24T01:15:20;21.20;59.90
9820;DHT22;4949;48.482;9.206;2023-07-24T01:20:30;21.10;60.20
9820;DHT22;4949;48.482;9.206;2023-07-24T01:25:33;21.10;60.80
9820;DHT22;4949;48.482;9.206;2023-07-24T01:30:36;20.90;61.30
9820;DHT22;4949;48.482;9.206;2023-07-24T01:35:38;20.80;62.60
9820;DHT22;4949;48.482;9.206;2023-07-24T01:40:45;20.70;62.00
9820;DHT22;4949;48.482;9.206;2023-07-24T01:45:46;20.60;62.40
9820;DHT22;4949;48.482;9.206;2023-07-24T01:50:47;20.50;63.00
9820;DHT22;4949;48.482;9.206;2023-07-24T01:55:48;20.50;62.90
9820;DHT22;4949;48.482;9.206;2023-07-24T02:00:48;20.50;63.20
9820;DHT22;4949;48.482;9.206;2023-07-24T02:05:54;20.50;63.70
9820;DHT22;4949;48.482;9.206;2023-07-24T02:10:54;20.60;62.40
9820;DHT22;4949;48.482;9.206;2023-07-24T02:15:55;20.60;62.60
9820;DHT22;4949;48.482;9.206;2023-07-24T02:20:56;20.70;62.10
9820;DHT22;4949;48.482;9.206;2023-07-24T02:25:59;20.80;61.60
9820;DHT22;4949;48.482;9.206;2023-07-24T02:31:02;20.80;60.90
9820;DHT22;4949;48.482;9.206;2023-07-24T02:36:05;20.70;61.10
9820;DHT22;4949;48.482;9.206;2023-07-24T02:41:06;20.70;61.10
9820;DHT22;4949;48.482;9.206;2023-07-24T02:46:06;20.70;61.90
9820;DHT22;4949;48.482;9.206;2023-07-24T02:51:07;20.70;61.30
9820;DHT22;4949;48.482;9.206;2023-07-24T02:56:08;20.60;61.90
9820;DHT22;4949;48.482;9.206;2023-07-24T03:01:08;20.50;62.40
9820;DHT22;4949;48.482;9.206;2023-07-24T03:06:10;20.50;62.70
9820;DHT22;4949;48.482;9.206;2023-07-24T03:11:13;20.60;62.50
9820;DHT22;4949;48.482;9.206;2023-07-24T03:16:14;20.60;62.00
9820;DHT22;4949;48.482;9.206;2023-07-24T03:21:17;20.80;61.50
9820;DHT22;4949;48.482;9.206;2023-07-24T03:26:21;20.80;61.90
9820;DHT22;4949;48.482;9.206;2023-07-24T03:31:24;20.70;63.30
9820;DHT22;4949;48.482;9.206;2023-07-24T03:36:28;20.70;62.60
9820;DHT22;4949;48.482;9.206;2023-07-24T03:41:28;20.50;64.20
9820;DHT22;4949;48.482;9.206;2023-07-24T03:46:31;20.50;64.00
9820;DHT22;4949;48.482;9.206;2023-07-24T03:51:35;20.50;63.90
9820;DHT22;4949;48.482;9.206;2023-07-24T03:56:38;20.40;64.60
9820;DHT22;4949;48.482;9.206;2023-07-24T04:01:43;20.40;64.60
9820;DHT22;4949;48.482;9.206;2023-07-24T04:06:45;20.40;64.60
9820;DHT22;4949;48.482;9.206;2023-07-24T04:11:46;20.40;65.60
9820;DHT22;4949;48.482;9.206;2023-07-24T04:16:49;20.40;64.60
9820;DHT22;4949;48.482;9.206;2023-07-24T04:21:50;20.40;66.00
9820;DHT22;4949;48.482;9.206;2023-07-24T04:26:53;20.40;65.10
9820;DHT22;4949;48.482;9.206;2023-07-24T04:31:56;20.50;65.00
9820;DHT22;4949;48.482;9.206;2023-07-24T04:36:57;20.60;64.30
9820;DHT22;4949;48.482;9.206;2023-07-24T04:41:57;20.50;65.10
9820;DHT22;4949;48.482;9.206;2023-07-24T04:46:58;20.30;66.20
9820;DHT22;4949;48.482;9.206;2023-07-24T04:52:04;20.10;67.20
9820;DHT22;4949;48.482;9.206;2023-07-24T04:57:13;20.10;67.50
9820;DHT22;4949;48.482;9.206;2023-07-24T05:02:14;20.20;66.70
9820;DHT22;4949;48.482;9.206;2023-07-24T05:07:14;20.00;67.90
9820;DHT22;4949;48.482;9.206;2023-07-24T05:12:17;20.10;66.80
9820;DHT22;4949;48.482;9.206;2023-07-24T05:17:18;20.20;67.90
9820;DHT22;4949;48.482;9.206;2023-07-24T05:22:21;20.20;67.40
9820;DHT22;4949;48.482;9.206;2023-07-24T05:27:22;20.20;67.40
9820;DHT22;4949;48.482;9.206;2023-07-24T05:32:23;20.20;67.20
9820;DHT22;4949;48.482;9.206;2023-07-24T05:37:30;20.20;67.80
9820;DHT22;4949;48.482;9.206;2023-07-24T05:42:31;20.10;68.20
9820;DHT22;4949;48.482;9.206;2023-07-24T05:47:32;20.10;68.20
9820;DHT22;4949;48.482;9.206;2023-07-24T05:52:32;20.20;67.90
9820;DHT22;4949;48.482;9.206;2023-07-24T05:57:33;20.20;68.00
9820;DHT22;4949;48.482;9.206;2023-07-24T06:02:36;20.20;68.90
9820;DHT22;4949;48.482;9.206;2023-07-24T06:07:39;20.20;69.50
9820;DHT22;4949;48.482;9.206;2023-07-24T06:12:40;20.30;69.00
9820;DHT22;4949;48.482;9.206;2023-07-24T06:17:41;20.40;68.60
9820;DHT22;4949;48.482;9.206;2023-07-24T06:22:41;20.60;68.20
9820;DHT22;4949;48.482;9.206;2023-07-24T06:27:45;20.60;69.80
9820;DHT22;4949;48.482;9.206;2023-07-24T06:32:45;20.70;68.40
9820;DHT22;4949;48.482;9.206;2023-07-24T06:37:46;20.70;69.10
9820;DHT22;4949;48.482;9.206;2023-07-24T06:42:52;20.70;68.50
9820;DHT22;4949;48.482;9.206;2023-07-24T06:47:54;20.80;68.30
9820;DHT22;4949;48.482;9.206;2023-07-24T06:52:55;20.90;67.80
9820;DHT22;4949;48.482;9.206;2023-07-24T06:57:58;20.90;69.10
9820;DHT22;4949;48.482;9.206;2023-07-24T07:02:59;21.00;68.80
9820;DHT22;4949;48.482;9.206;2023-07-24T07:08:00;21.10;68.40
9820;DHT22;4949;48.482;9.206;2023-07-24T07:13:00;21.00;68.70
9820;DHT22;4949;48.482;9.206;2023-07-24T07:18:03;21.10;68.20
9820;DHT22;4949;48.482;9.206;2023-07-24T07:23:04;21.20;68.10
9820;DHT22;4949;48.482;9.206;2023-07-24T07:28:05;21.20;68.20
9820;DHT22;4949;48.482;9.206;2023-07-24T07:33:05;21.40;68.20
9820;DHT22;4949;48.482;9.206;2023-07-24T07:38:06;21.60;68.00
9820;DHT22;4949;48.482;9.206;2023-07-24T07:43:12;21.80;66.70
9820;DHT22;4949;48.482;9.206;2023-07-24T07:48:12;22.00;66.90
9820;DHT22;4949;48.482;9.206;2023-07-24T07:53:15;22.20;66.00
9820;DHT22;4949;48.482;9.206;2023-07-24T07:58:16;22.40;65.40
9820;DHT22;4949;48.482;9.206;2023-07-24T08:03:19;22.50;65.50
9820;DHT22;4949;48.482;9.206;2023-07-24T08:08:20;22.50;62.80
9820;DHT22;4949;48.482;9.206;2023-07-24T08:13:20;22.60;60.80
9820;DHT22;4949;48.482;9.206;2023-07-24T08:18:28;22.70;60.60
9820;DHT22;4949;48.482;9.206;2023-07-24T08:23:32;22.90;59.70
9820;DHT22;4949;48.482;9.206;2023-07-24T08:28:33;23.10;59.80
9820;DHT22;4949;48.482;9.206;2023-07-24T08:33:35;23.00;60.20
9820;DHT22;4949;48.482;9.206;2023-07-24T08:38:36;22.90;61.10
9820;DHT22;4949;48.482;9.206;2023-07-24T08:43:43;23.00;61.10
9820;DHT22;4949;48.482;9.206;2023-07-24T08:48:46;23.10;61.50
9820;DHT22;4949;48.482;9.206;2023-07-24T08:53:47;23.10;61.30
9820;DHT22;4949;48.482;9.206;2023-07-24T08:58:48;23.20;62.00
9820;DHT22;4949;48.482;9.206;2023-07-24T09:03:52;23.20;63.20
9820;DHT22;4949;48.482;9.206;2023-07-24T09:08:55;23.20;63.80
9820;DHT22;4949;48.482;9.206;2023-07-24T09:13:55;23.10;65.20
9820;DHT22;4949;48.482;9.206;2023-07-24T09:18:56;23.10;65.90
9820;DHT22;4949;48.482;9.206;2023-07-24T09:23:57;22.90;66.30
9820;DHT22;4949;48.482;9.206;2023-07-24T09:29:11;22.90;66.30
9820;DHT22;4949;48.482;9.206;2023-07-24T09:34:16;22.90;66.60
9820;DHT22;4949;48.482;9.206;2023-07-24T09:39:27;23.00;66.70
9820;DHT22;4949;48.482;9.206;2023-07-24T09:44:27;23.10;67.10
9820;DHT22;4949;48.482;9.206;2023-07-24T09:49:30;23.10;67.20
9820;DHT22;4949;48.482;9.206;2023-07-24T09:54:34;23.10;67.60
9820;DHT22;4949;48.482;9.206;2023-07-24T09:59:41;23.10;67.30
9820;DHT22;4949;48.482;9.206;2023-07-24T10:04:42;23.00;68.00
9820;DHT22;4949;48.482;9.206;2023-07-24T10:09:46;23.00;69.70
9820;DHT22;4949;48.482;9.206;2023-07-24T10:14:48;23.00;70.40
9820;DHT22;4949;48.482;9.206;2023-07-24T10:19:49;22.80;74.50
9820;DHT22;4949;48.482;9.206;2023-07-24T10:24:50;22.60;76.60
9820;DHT22;4949;48.482;9.206;2023-07-24T10:30:03;22.50;77.60
9820;DHT22;4949;48.482;9.206;2023-07-24T10:35:09;22.60;78.10
9820;DHT22;4949;48.482;9.206;2023-07-24T10:40:20;22.20;77.90
9820;DHT22;4949;48.482;9.206;2023-07-24T10:45:21;21.80;78.50
9820;DHT22;4949;48.482;9.206;2023-07-24T10:50:22;21.30;79.30
9820;DHT22;4949;48.482;9.206;2023-07-24T10:55:23;21.10;80.30
9820;DHT22;4949;48.482;9.206;2023-07-24T11:00:26;20.80;81.10
9820;DHT22;4949;48.482;9.206;2023-07-24T11:05:27;20.70;81.70
9820;DHT22;4949;48.482;9.206;2023-07-24T11:10:30;20.70;83.10
9820;DHT22;4949;48.482;9.206;2023-07-24T11:15:33;20.80;82.00
9820;DHT22;4949;48.482;9.206;2023-07-24T11:20:46;20.70;81.90
9820;DHT22;4949;48.482;9.206;2023-07-24T11:25:53;20.60;83.10
9820;DHT22;4949;48.482;9.206;2023-07-24T11:30:54;20.50;83.60
9820;DHT22;4949;48.482;9.206;2023-07-24T11:36:02;20.80;84.50
9820;DHT22;4949;48.482;9.206;2023-07-24T11:41:07;21.20;84.90
9820;DHT22;4949;48.482;9.206;2023-07-24T11:46:08;21.40;86.40
9820;DHT22;4949;48.482;9.206;2023-07-24T11:51:15;21.70;85.00
9820;DHT22;4949;48.482;9.206;2023-07-24T11:56:19;21.70;83.70
9820;DHT22;4949;48.482;9.206;2023-07-24T12:01:23;21.90;81.90
9820;DHT22;4949;48.482;9.206;2023-07-24T12:06:24;21.90;78.40
9820;DHT22;4949;48.482;9.206;2023-07-24T12:11:26;22.10;76.80
9820;DHT22;4949;48.482;9.206;2023-07-24T12:16:30;22.20;76.20
9820;DHT22;4949;48.482;9.206;2023-07-24T12:21:34;22.20;75.30
9820;DHT22;4949;48.482;9.206;2023-07-24T12:26:35;22.30;76.30
9820;DHT22;4949;48.482;9.206;2023-07-24T12:31:35;22.40;75.90
9820;DHT22;4949;48.482;9.206;2023-07-24T12:36:36;22.50;75.80
9820;DHT22;4949;48.482;9.206;2023-07-24T12:41:39;22.60;74.30
9820;DHT22;4949;48.482;9.206;2023-07-24T12:46:40;22.80;72.80
9820;DHT22;4949;48.482;9.206;2023-07-24T12:51:41;22.70;71.20
9820;DHT22;4949;48.482;9.206;2023-07-24T12:56:41;22.90;70.80
9820;DHT22;4949;48.482;9.206;2023-07-24T13:01:42;22.80;70.00
9820;DHT22;4949;48.482;9.206;2023-07-24T13:06:43;22.90;69.20
9820;DHT22;4949;48.482;9.206;2023-07-24T13:11:47;23.20;66.30
9820;DHT22;4949;48.482;9.206;2023-07-24T13:16:55;23.40;65.20
9820;DHT22;4949;48.482;9.206;2023-07-24T13:21:58;23.50;65.50
9820;DHT22;4949;48.482;9.206;2023-07-24T13:26:59;23.50;63.80
9820;DHT22;4949;48.482;9.206;2023-07-24T13:32:00;23.40;63.50
9820;DHT22;4949;48.482;9.206;2023-07-24T13:37:03;23.30;65.10
9820;DHT22;4949;48.482;9.206;2023-07-24T13:42:04;23.30;65.30
9820;DHT22;4949;48.482;9.206;2023-07-24T13:47:05;23.10;66.10
9820;DHT22;4949;48.482;9.206;2023-07-24T13:52:06;23.00;67.20
9820;DHT22;4949;48.482;9.206;2023-07-24T13:57:09;22.90;68.70
9820;DHT22;4949;48.482;9.206;2023-07-24T14:02:12;23.00;68.00
9820;DHT22;4949;48.482;9.206;2023-07-24T14:07:15;23.10;68.70
9820;DHT22;4949;48.482;9.206;2023-07-24T14:12:16;23.00;69.20
9820;DHT22;4949;48.482;9.206;2023-07-24T14:17:17;22.90;69.50
9820;DHT22;4949;48.482;9.206;2023-07-24T14:22:19;22.90;69.30
9820;DHT22;4949;48.482;9.206;2023-07-24T14:27:24;22.80;71.80
9820;DHT22;4949;48.482;9.206;2023-07-24T14:32:25;22.60;72.30
9820;DHT22;4949;48.482;9.206;2023-07-24T14:37:26;22.40;74.90
9820;DHT22;4949;48.482;9.206;2023-07-24T14:42:26;22.30;75.10
9820;DHT22;4949;48.482;9.206;2023-07-24T14:47:29;22.00;77.70
9820;DHT22;4949;48.482;9.206;2023-07-24T14:52:32;21.90;78.30
9820;DHT22;4949;48.482;9.206;2023-07-24T14:57:35;21.70;78.50
9820;DHT22;4949;48.482;9.206;2023-07-24T15:02:39;21.40;80.10
9820;DHT22;4949;48.482;9.206;2023-07-24T15:07:40;21.20;81.30
9820;DHT22;4949;48.482;9.206;2023-07-24T15:12:41;21.00;81.70
9820;DHT22;4949;48.482;9.206;2023-07-24T15:17:41;20.90;81.90
9820;DHT22;4949;48.482;9.206;2023-07-24T15:22:44;20.80;82.40
9820;DHT22;4949;48.482;9.206;2023-07-24T15:27:47;20.80;84.60
9820;DHT22;4949;48.482;9.206;2023-07-24T15:32:48;20.80;83.70
9820;DHT22;4949;48.482;9.206;2023-07-24T15:37:49;20.90;84.20
9820;DHT22;4949;48.482;9.206;2023-07-24T15:42:52;21.10;83.20
9820;DHT22;4949;48.482;9.206;2023-07-24T15:47:55;21.10;84.50
9820;DHT22;4949;48.482;9.206;2023-07-24T15:52:56;21.30;83.40
9820;DHT22;4949;48.482;9.206;2023-07-24T15:58:01;21.40;82.80
9820;DHT22;4949;48.482;9.206;2023-07-24T16:03:03;21.90;83.70
9820;DHT22;4949;48.482;9.206;2023-07-24T16:08:04;22.40;82.20
9820;DHT22;4949;48.482;9.206;2023-07-24T16:13:04;22.80;77.90
9820;DHT22;4949;48.482;9.206;2023-07-24T16:18:05;23.10;77.60
9820;DHT22;4949;48.482;9.206;2023-07-24T16:23:06;23.50;75.70
9820;DHT22;4949;48.482;9.206;2023-07-24T16:28:07;23.60;73.20
9820;DHT22;4949;48.482;9.206;2023-07-24T16:33:08;23.70;70.90
9820;DHT22;4949;48.482;9.206;2023-07-24T16:38:09;23.90;69.80
9820;DHT22;4949;48.482;9.206;2023-07-24T16:43:14;24.00;70.20
9820;DHT22;4949;48.482;9.206;2023-07-24T16:48:15;24.00;69.60
9820;DHT22;4949;48.482;9.206;2023-07-24T16:53:16;24.20;69.80
9820;DHT22;4949;48.482;9.206;2023-07-24T16:58:19;24.20;68.70
9820;DHT22;4949;48.482;9.206;2023-07-24T17:03:19;24.30;68.40
9820;DHT22;4949;48.482;9.206;2023-07-24T17:08:20;24.30;68.30
9820;DHT22;4949;48.482;9.206;2023-07-24T17:13:23;24.30;67.60
9820;DHT22;4949;48.482;9.206;2023-07-24T17:18:24;24.00;68.50
9820;DHT22;4949;48.482;9.206;2023-07-24T17:23:27;23.90;70.00
9820;DHT22;4949;48.482;9.206;2023-07-24T17:28:28;24.00;69.40
9820;DHT22;4949;48.482;9.206;2023-07-24T17:33:29;23.90;70.00
9820;DHT22;4949;48.482;9.206;2023-07-24T17:38:30;23.60;69.90
9820;DHT22;4949;48.482;9.206;2023-07-24T17:43:32;23.30;70.10
9820;DHT22;4949;48.482;9.206;2023-07-24T17:48:32;23.00;71.30
9820;DHT22;4949;48.482;9.206;2023-07-24T17:53:34;22.80;71.50
9820;DHT22;4949;48.482;9.206;2023-07-24T17:58:37;22.70;72.00
9820;DHT22;4949;48.482;9.206;2023-07-24T18:03:38;22.50;72.50
9820;DHT22;4949;48.482;9.206;2023-07-24T18:08:39;22.60;72.90
9820;DHT22;4949;48.482;9.206;2023-07-24T18:13:39;22.50;72.60
9820;DHT22;4949;48.482;9.206;2023-07-24T18:18:40;22.50;72.50
9820;DHT22;4949;48.482;9.206;2023-07-24T18:23:43;22.50;72.90
9820;DHT22;4949;48.482;9.206;2023-07-24T18:28:43;22.50;72.50
9820;DHT22;4949;48.482;9.206;2023-07-24T18:33:44;22.40;72.30
9820;DHT22;4949;48.482;9.206;2023-07-24T18:38:45;22.50;71.40
9820;DHT22;4949;48.482;9.206;2023-07-24T18:43:48;22.40;71.30
9820;DHT22;4949;48.482;9.206;2023-07-24T18:48:52;22.40;71.50
9820;DHT22;4949;48.482;9.206;2023-07-24T18:53:53;22.40;71.20
9820;DHT22;4949;48.482;9.206;2023-07-24T18:58:54;22.20;71.60
9820;DHT22;4949;48.482;9.206;2023-07-24T19:03:55;22.20;71.90
9820;DHT22;4949;48.482;9.206;2023-07-24T19:08:58;22.10;72.90
9820;DHT22;4949;48.482;9.206;2023-07-24T19:14:04;21.90;73.50
9820;DHT22;4949;48.482;9.206;2023-07-24T19:19:04;21.90;73.70
9820;DHT22;4949;48.482;9.206;2023-07-24T19:24:08;21.80;73.30
9820;DHT22;4949;48.482;9.206;2023-07-24T19:29:12;21.70;73.40
9820;DHT22;4949;48.482;9.206;2023-07-24T19:34:15;21.70;73.70
9820;DHT22;4949;48.482;9.206;2023-07-24T19:39:18;21.60;74.80
9820;DHT22;4949;48.482;9.206;2023-07-24T19:44:21;21.50;74.70
9820;DHT22;4949;48.482;9.206;2023-07-24T19:49:27;21.30;74.20
9820;DHT22;4949;48.482;9.206;2023-07-24T19:54:32;21.30;74.10
9820;DHT22;4949;48.482;9.206;2023-07-24T19:59:34;21.10;75.80
9820;DHT22;4949;48.482;9.206;2023-07-24T20:04:38;21.10;76.00
9820;DHT22;4949;48.482;9.206;2023-07-24T20:09:40;21.00;75.80
9820;DHT22;4949;48.482;9.206;2023-07-24T20:14:46;21.00;75.80
9820;DHT22;4949;48.482;9.206;2023-07-24T20:19:48;20.90;76.30
9820;DHT22;4949;48.482;9.206;2023-07-24T20:24:49;20.70;76.90
9820;DHT22;4949;48.482;9.206;2023-07-24T20:29:50;20.70;76.50
9820;DHT22;4949;48.482;9.206;2023-07-24T20:34:50;20.70;76.70
9820;DHT22;4949;48.482;9.206;2023-07-24T20:39:53;20.70;75.60
9820;DHT22;4949;48.482;9.206;2023-07-24T20:44:54;20.60;75.90
9820;DHT22;4949;48.482;9.206;2023-07-24T20:49:56;20.60;75.40
9820;DHT22;4949;48.482;9.206;2023-07-24T20:54:57;20.50;75.20
9820;DHT22;4949;48.482;9.206;2023-07-24T20:59:58;20.50;75.30
9820;DHT22;4949;48.482;9.206;2023-07-24T21:04:59;20.40;75.50
9820;DHT22;4949;48.482;9.206;2023-07-24T21:10:00;20.40;75.60
9820;DHT22;4949;48.482;9.206;2023-07-24T21:15:01;20.30;75.80
9820;DHT22;4949;48.482;9.206;2023-07-24T21:20:04;20.20;75.90
9820;DHT22;4949;48.482;9.206;2023-07-24T21:25:06;20.10;76.10
9820;DHT22;4949;48.482;9.206;2023-07-24T21:30:10;20.00;77.10
9820;DHT22;4949;48.482;9.206;2023-07-24T21:35:11;20.00;76.50
9820;DHT22;4949;48.482;9.206;2023-07-24T21:40:12;19.90;76.10
9820;DHT22;4949;48.482;9.206;2023-07-24T21:45:15;19.80;76.20
9820;DHT22;4949;48.482;9.206;2023-07-24T21:50:19;19.70;76.80
9820;DHT22;4949;48.482;9.206;2023-07-24T21:55:19;19.60;77.30
9820;DHT22;4949;48.482;9.206;2023-07-24T22:00:21;19.50;77.80
9820;DHT22;4949;48.482;9.206;2023-07-24T22:05:24;19.50;78.20
9820;DHT22;4949;48.482;9.206;2023-07-24T22:10:25;19.50;78.20
9820;DHT22;4949;48.482;9.206;2023-07-24T22:15:25;19.50;78.00
9820;DHT22;4949;48.482;9.206;2023-07-24T22:20:26;19.40;78.00
9820;DHT22;4949;48.482;9.206;2023-07-24T22:25:31;19.40;78.30
9820;DHT22;4949;48.482;9.206;2023-07-24T22:30:32;19.40;77.90
9820;DHT22;4949;48.482;9.206;2023-07-24T22:35:35;19.30;78.10
9820;DHT22;4949;48.482;9.206;2023-07-24T22:40:36;19.20;79.20
9820;DHT22;4949;48.482;9.206;2023-07-24T22:45:36;19.30;78.20
9820;DHT22;4949;48.482;9.206;2023-07-24T22:50:37;19.20;77.80
9820;DHT22;4949;48.482;9.206;2023-07-24T22:55:38;19.10;78.10
9820;DHT22;4949;48.482;9.206;2023-07-24T23:00:39;19.00;78.30
9820;DHT22;4949;48.482;9.206;2023-07-24T23:05:40;19.00;78.80
9820;DHT22;4949;48.482;9.206;2023-07-24T23:10:42;18.90;79.20
9820;DHT22;4949;48.482;9.206;2023-07-24T23:15:43;18.90;79.40
9820;DHT22;4949;48.482;9.206;2023-07-24T23:20:46;18.80;79.40
9820;DHT22;4949;48.482;9.206;2023-07-24T23:25:47;18.80;79.50
9820;DHT22;4949;48.482;9.206;2023-07-24T23:30:48;18.80;79.40
9820;DHT22;4949;48.482;9.206;2023-07-24T23:35:51;18.80;79.60
9820;DHT22;4949;48.482;9.206;2023-07-24T23:40:58;18.70;79.50
9820;DHT22;4949;48.482;9.206;2023-07-24T23:46:15;18.70;79.50
9820;DHT22;4949;48.482;9.206;2023-07-24T23:51:19;18.70;79.20
9820;DHT22;4949;48.482;9.206;2023-07-24T23:56:22;18.70;79.10
